createdAt,value
2019-01-09T00:01:34.654Z,94.93
2019-01-09T00:04:04.129Z,101.43
2019-01-09T00:06:33.595Z,97.53
2019-01-09T00:09:04.649Z,97.70
2019-01-09T00:11:35.024Z,99.00
2019-01-09T00:14:04.601Z,94.40
2019-01-09T00:16:34.066Z,90.77
2019-01-09T00:19:03.601Z,93.33
2019-01-09T00:21:32.979Z,92.77
2019-01-09T00:30:18.299Z,92.03
2019-01-09T00:32:47.661Z,99.70
2019-01-09T00:35:17.245Z,104.27
2019-01-09T00:37:50.420Z,98.90
2019-01-09T00:40:20.787Z,96.23
2019-01-09T00:42:50.183Z,92.87
2019-01-09T00:45:25.948Z,107.73
2019-01-09T00:47:56.222Z,93.93
2019-01-09T00:50:25.671Z,100.30
2019-01-09T00:52:55.134Z,92.47
2019-01-09T00:55:25.586Z,96.33
2019-01-09T00:57:55.097Z,102.50
2019-01-09T01:00:24.607Z,93.77
2019-01-09T01:02:59.969Z,96.07
2019-01-09T01:06:06.772Z,97.10
2019-01-09T01:09:01.819Z,92.80
2019-01-09T01:12:01.315Z,93.90
2019-01-09T01:15:02.276Z,93.83
2019-01-09T01:17:39.747Z,90.97
2019-01-09T01:20:23.009Z,93.07
2019-01-09T01:23:00.972Z,95.13
2019-01-09T01:25:46.011Z,88.53
2019-01-09T01:28:41.236Z,98.03
2019-01-09T01:31:38.928Z,94.77
2019-01-09T01:34:19.933Z,92.17
2019-01-09T01:37:11.843Z,88.67
2019-01-09T01:40:17.562Z,86.90
2019-01-09T01:43:04.943Z,92.40
2019-01-09T01:45:51.833Z,95.70
2019-01-09T01:48:26.595Z,91.53
2019-01-09T01:51:14.030Z,82.37
2019-01-09T01:53:49.391Z,86.47
2019-01-09T01:56:36.945Z,96.03
2019-01-09T01:59:25.694Z,94.33
2019-01-09T02:02:21.888Z,90.17
2019-01-09T02:05:10.333Z,86.63
2019-01-09T02:07:54.841Z,88.33
2019-01-09T02:10:54.083Z,91.80
2019-01-09T02:13:41.410Z,84.57
2019-01-09T02:16:31.736Z,82.30
2019-01-09T02:19:15.681Z,87.37
2019-01-09T02:22:09.255Z,81.80
2019-01-09T02:24:53.584Z,90.23
2019-01-09T02:27:34.745Z,87.57
2019-01-09T02:30:25.011Z,90.03
2019-01-09T02:32:54.234Z,90.37
2019-01-09T02:35:23.661Z,88.43
2019-01-09T02:37:52.862Z,88.37
2019-01-09T02:40:22.327Z,83.43
2019-01-09T02:42:51.762Z,83.03
2019-01-09T02:45:20.973Z,82.83
2019-01-09T02:47:50.373Z,88.60
2019-01-09T02:50:19.544Z,87.47
2019-01-09T02:52:49.025Z,88.00
2019-01-09T02:55:18.570Z,83.30
2019-01-09T02:57:56.509Z,93.40
2019-01-09T03:00:19.270Z,85.00
2019-01-09T03:02:48.635Z,88.57
2019-01-09T03:05:18.226Z,93.50
2019-01-09T03:07:47.672Z,90.93
2019-01-09T03:10:17.156Z,88.37
2019-01-09T03:12:46.334Z,93.70
2019-01-09T03:15:15.880Z,93.27
2019-01-09T03:17:45.343Z,92.10
2019-01-09T03:20:14.749Z,92.57
2019-01-09T03:22:45.191Z,99.10
2019-01-09T03:25:14.653Z,92.27
2019-01-09T03:27:44.214Z,87.90
2019-01-09T03:30:13.598Z,99.93
2019-01-09T03:32:43.190Z,98.17
2019-01-09T03:35:12.677Z,100.17
2019-01-09T03:37:42.258Z,92.73
2019-01-09T03:40:11.686Z,98.23
2019-01-09T03:42:41.947Z,91.23
2019-01-09T03:45:11.228Z,90.57
2019-01-09T03:47:42.638Z,89.60
2019-01-09T03:50:12.188Z,86.70
2019-01-09T03:52:41.667Z,87.27
2019-01-09T03:55:11.119Z,90.97
2019-01-09T03:57:40.614Z,93.10
2019-01-09T04:00:09.904Z,92.43
2019-01-09T04:02:39.207Z,94.33
2019-01-09T04:05:08.367Z,93.77
2019-01-09T04:07:37.867Z,94.97
2019-01-09T04:10:08.062Z,95.13
2019-01-09T04:12:37.234Z,94.23
2019-01-09T04:15:07.550Z,96.10
2019-01-09T04:17:36.718Z,102.40
2019-01-09T04:20:06.842Z,96.73
2019-01-09T04:22:37.413Z,94.93
2019-01-09T04:25:06.816Z,95.37
2019-01-09T04:27:35.982Z,94.10
2019-01-09T04:30:07.502Z,98.40
2019-01-09T04:32:46.062Z,98.20
2019-01-09T04:35:39.843Z,98.33
2019-01-09T04:38:12.044Z,90.90
2019-01-09T04:40:41.562Z,99.80
2019-01-09T04:43:11.091Z,98.07
2019-01-09T04:45:41.375Z,100.47
2019-01-09T04:48:12.913Z,100.87
2019-01-09T04:50:42.130Z,94.00
2019-01-09T04:53:12.345Z,100.80
2019-01-09T04:55:41.498Z,98.30
2019-01-09T04:58:10.972Z,93.07
2019-01-09T05:00:40.429Z,97.67
2019-01-09T05:03:09.594Z,100.10
2019-01-09T05:05:39.098Z,112.23
2019-01-09T05:08:08.547Z,102.63
2019-01-09T05:10:37.725Z,107.20
2019-01-09T05:13:07.264Z,93.77
2019-01-09T05:15:36.658Z,108.23
2019-01-09T05:18:06.985Z,111.97
2019-01-09T05:20:36.187Z,108.03
2019-01-09T05:23:05.579Z,97.33
2019-01-09T05:25:34.751Z,107.30
2019-01-09T05:28:05.035Z,106.53
2019-01-09T05:30:36.472Z,110.73
2019-01-09T05:33:05.376Z,102.20
2019-01-09T05:35:34.863Z,99.10
2019-01-09T05:38:04.268Z,96.67
2019-01-09T05:40:33.752Z,110.27
2019-01-09T05:43:03.364Z,105.00
2019-01-09T05:45:32.781Z,104.77
2019-01-09T05:48:02.367Z,110.70
2019-01-09T05:50:31.817Z,114.93
2019-01-09T05:53:01.379Z,106.23
2019-01-09T05:55:30.791Z,105.07
2019-01-09T05:57:59.996Z,107.53
2019-01-09T06:00:29.385Z,103.27
2019-01-09T06:02:58.563Z,110.97
2019-01-09T06:05:28.054Z,104.23
2019-01-09T06:07:57.492Z,99.77
2019-01-09T06:10:26.649Z,103.63
2019-01-09T06:12:56.132Z,101.73
2019-01-09T06:15:25.703Z,105.80
2019-01-09T06:17:55.927Z,100.80
2019-01-09T06:20:31.222Z,110.40
2019-01-09T06:23:00.899Z,114.27
2019-01-09T06:25:30.201Z,107.73
2019-01-09T06:28:01.775Z,114.47
2019-01-09T06:30:32.054Z,106.93
2019-01-09T06:33:01.266Z,108.43
2019-01-09T06:35:35.245Z,108.43
2019-01-09T06:38:04.750Z,103.63
2019-01-09T06:40:34.170Z,103.93
2019-01-09T06:43:03.778Z,110.70
2019-01-09T06:45:33.193Z,105.23
2019-01-09T06:48:02.778Z,106.47
2019-01-09T06:50:32.238Z,118.80
2019-01-09T06:53:01.779Z,115.93
2019-01-09T06:55:31.256Z,114.17
2019-01-09T06:58:00.743Z,113.57
2019-01-09T07:00:30.240Z,114.77
2019-01-09T07:02:59.808Z,109.80
2019-01-09T07:05:29.271Z,123.33
2019-01-09T07:07:59.631Z,105.47
2019-01-09T07:10:29.071Z,114.83
2019-01-09T07:12:58.609Z,111.17
2019-01-09T07:15:28.079Z,115.13
2019-01-09T07:17:57.269Z,121.30
2019-01-09T07:20:26.566Z,115.17
2019-01-09T07:22:55.811Z,116.87
2019-01-09T07:25:25.037Z,119.63
2019-01-09T07:27:54.321Z,113.53
2019-01-09T07:30:23.546Z,111.10
2019-01-09T07:32:52.727Z,100.33
2019-01-09T07:35:22.003Z,101.60
2019-01-09T07:37:51.174Z,115.67
2019-01-09T07:40:20.360Z,104.37
2019-01-09T07:42:49.678Z,113.17
2019-01-09T07:45:18.861Z,107.40
2019-01-09T07:47:48.030Z,110.57
2019-01-09T07:50:17.314Z,104.50
2019-01-09T07:52:46.631Z,119.97
2019-01-09T07:55:15.810Z,111.17
2019-01-09T07:57:45.087Z,107.63
2019-01-09T08:00:14.249Z,115.53
2019-01-09T08:02:43.451Z,115.03
2019-01-09T08:05:12.727Z,113.90
2019-01-09T08:07:41.886Z,108.60
2019-01-09T08:10:11.285Z,102.07
2019-01-09T08:12:41.000Z,115.57
2019-01-09T08:15:10.307Z,111.17
2019-01-09T08:17:39.473Z,112.10
2019-01-09T08:20:08.891Z,111.47
2019-01-09T08:22:38.062Z,110.93
2019-01-09T08:25:07.359Z,100.10
2019-01-09T08:27:36.565Z,103.70
2019-01-09T08:30:09.132Z,108.37
2019-01-09T08:32:38.379Z,104.37
2019-01-09T08:35:08.037Z,116.90
2019-01-09T08:37:37.286Z,103.00
2019-01-09T08:40:08.801Z,106.23
2019-01-09T08:42:38.183Z,110.67
2019-01-09T08:45:08.206Z,118.43
2019-01-09T08:47:37.437Z,106.63
2019-01-09T08:50:08.915Z,99.27
2019-01-09T08:52:38.781Z,105.13
2019-01-09T08:55:09.082Z,115.07
2019-01-09T08:57:38.353Z,107.43
2019-01-09T09:00:10.123Z,99.70
2019-01-09T09:02:39.364Z,86.77
2019-01-09T09:05:08.725Z,87.77
2019-01-09T09:07:39.573Z,93.00
2019-01-09T09:10:11.415Z,99.33
2019-01-09T09:12:40.762Z,96.70
2019-01-09T09:15:12.912Z,93.87
2019-01-09T09:17:42.146Z,92.87
2019-01-09T09:20:13.219Z,90.97
2019-01-09T09:22:42.400Z,87.03
2019-01-09T09:25:11.630Z,86.47
2019-01-09T09:27:40.841Z,87.70
2019-01-09T09:30:13.114Z,83.80
2019-01-09T09:32:42.351Z,85.93
2019-01-09T09:35:11.750Z,83.43
2019-01-09T09:37:40.951Z,82.13
2019-01-09T09:40:13.279Z,84.57
2019-01-09T09:42:42.579Z,75.90
2019-01-09T09:45:12.810Z,76.73
2019-01-09T09:47:42.044Z,78.00
2019-01-09T09:50:16.440Z,76.30
2019-01-09T09:52:45.618Z,74.43
2019-01-09T09:55:15.027Z,74.67
2019-01-09T09:57:44.297Z,86.17
2019-01-09T10:00:19.555Z,74.40
2019-01-09T10:02:48.903Z,77.00
2019-01-09T10:05:18.190Z,78.70
2019-01-09T10:07:47.448Z,74.23
2019-01-09T10:10:16.907Z,71.93
2019-01-09T10:12:46.138Z,74.60
2019-01-09T10:15:17.047Z,73.00
2019-01-09T10:17:46.241Z,77.40
2019-01-09T10:20:17.689Z,65.57
2019-01-09T10:22:47.506Z,72.07
2019-01-09T10:25:16.876Z,69.47
2019-01-09T10:27:46.174Z,71.03
2019-01-09T10:30:21.018Z,62.00
2019-01-09T10:32:50.218Z,73.50
2019-01-09T10:35:19.784Z,65.20
2019-01-09T10:37:51.425Z,78.13
2019-01-09T10:40:21.971Z,63.97
2019-01-09T10:42:53.959Z,69.33
2019-01-09T10:45:24.355Z,64.03
2019-01-09T10:47:53.883Z,64.03
2019-01-09T10:50:23.365Z,62.20
2019-01-09T10:52:52.795Z,61.40
2019-01-09T10:55:22.297Z,67.50
2019-01-09T10:57:51.732Z,72.60
2019-01-09T11:00:26.174Z,67.73
2019-01-09T11:02:55.630Z,70.43
2019-01-09T11:05:25.171Z,63.37
2019-01-09T11:07:54.682Z,66.47
2019-01-09T11:10:24.031Z,70.77
2019-01-09T11:12:53.682Z,67.17
2019-01-09T11:15:26.233Z,67.90
2019-01-09T11:17:55.586Z,69.03
2019-01-09T11:20:32.089Z,66.27
2019-01-09T11:23:01.649Z,63.03
2019-01-09T11:25:39.712Z,60.90
2019-01-09T11:28:09.288Z,62.27
2019-01-09T11:30:38.652Z,68.33
2019-01-09T11:33:14.080Z,72.23
2019-01-09T11:35:43.402Z,64.47
2019-01-09T11:38:12.919Z,70.87
2019-01-09T11:40:48.265Z,70.23
2019-01-09T11:43:17.656Z,65.10
2019-01-09T11:45:47.249Z,64.93
2019-01-09T11:48:16.688Z,65.77
2019-01-09T11:50:47.813Z,73.03
2019-01-09T11:53:16.986Z,70.23
2019-01-09T11:55:46.858Z,73.43
2019-01-09T11:58:16.305Z,76.27
2019-01-09T12:00:45.462Z,76.53
2019-01-09T12:03:15.058Z,84.87
2019-01-09T12:05:44.453Z,80.27
2019-01-09T12:08:13.915Z,79.43
2019-01-09T12:10:43.180Z,80.90
2019-01-09T12:13:12.393Z,83.00
2019-01-09T12:15:42.938Z,103.93
2019-01-09T12:18:12.233Z,91.17
2019-01-09T12:20:41.446Z,91.77
2019-01-09T12:23:10.643Z,96.37
2019-01-09T12:25:39.863Z,95.53
2019-01-09T12:28:09.097Z,106.23
2019-01-09T12:30:38.261Z,120.10
2019-01-09T12:33:07.475Z,110.83
2019-01-09T12:35:36.723Z,111.63
2019-01-09T12:38:05.889Z,117.87
2019-01-09T12:40:35.093Z,113.23
2019-01-09T12:43:04.324Z,118.63
2019-01-09T12:45:33.764Z,116.30
2019-01-09T12:48:03.059Z,121.70
2019-01-09T12:50:32.263Z,119.60
2019-01-09T12:53:01.867Z,115.77
2019-01-09T12:55:31.154Z,118.70
2019-01-09T12:58:00.369Z,114.40
2019-01-09T13:00:30.217Z,126.17
2019-01-09T13:02:59.494Z,133.47
2019-01-09T13:05:28.818Z,135.60
2019-01-09T13:07:57.997Z,128.67
2019-01-09T13:10:27.582Z,132.90
2019-01-09T13:12:57.024Z,143.13
2019-01-09T13:15:26.472Z,146.20
2019-01-09T13:17:55.686Z,156.17
2019-01-09T13:20:25.093Z,146.20
2019-01-09T13:22:55.494Z,151.50
2019-01-09T13:25:24.976Z,144.10
2019-01-09T13:27:54.425Z,142.10
2019-01-09T13:30:23.742Z,139.10
2019-01-09T13:32:53.194Z,141.13
2019-01-09T13:35:24.583Z,141.87
2019-01-09T13:37:54.502Z,147.77
2019-01-09T13:40:24.097Z,148.03
2019-01-09T13:42:53.489Z,157.13
2019-01-09T13:45:23.903Z,160.13
2019-01-09T13:47:53.505Z,139.43
2019-01-09T13:50:22.987Z,145.93
2019-01-09T13:52:52.351Z,125.27
2019-01-09T13:55:23.518Z,125.83
2019-01-09T13:57:53.005Z,113.20
2019-01-09T14:00:23.248Z,117.30
2019-01-09T14:02:52.608Z,119.47
2019-01-09T14:05:21.906Z,101.67
2019-01-09T14:07:51.178Z,111.70
2019-01-09T14:10:23.435Z,100.23
2019-01-09T14:12:53.046Z,108.37
2019-01-09T14:15:23.142Z,101.10
2019-01-09T14:17:52.344Z,104.30
2019-01-09T14:20:21.662Z,95.70
2019-01-09T14:22:52.217Z,98.37
2019-01-09T14:25:21.700Z,101.93
2019-01-09T14:27:51.979Z,100.27
2019-01-09T14:30:27.984Z,105.73
2019-01-09T14:32:58.449Z,98.90
2019-01-09T14:35:27.868Z,100.23
2019-01-09T14:37:57.422Z,112.57
2019-01-09T14:40:26.647Z,99.33
2019-01-09T14:42:56.061Z,101.83
2019-01-09T14:45:25.669Z,116.90
2019-01-09T14:47:55.061Z,109.20
2019-01-09T14:50:25.231Z,112.70
2019-01-09T14:52:56.477Z,106.23
2019-01-09T14:55:30.060Z,102.43
2019-01-09T14:57:59.639Z,103.93
2019-01-09T15:00:29.174Z,101.43
2019-01-09T15:02:58.572Z,99.67
2019-01-09T15:05:28.179Z,109.70
2019-01-09T15:07:57.706Z,104.17
2019-01-09T15:10:28.673Z,103.80
2019-01-09T15:12:58.095Z,103.50
2019-01-09T15:15:28.302Z,102.70
2019-01-09T15:17:59.878Z,104.00
2019-01-09T15:20:30.910Z,104.87
2019-01-09T15:23:00.376Z,99.37
2019-01-09T15:25:29.880Z,99.70
2019-01-09T15:28:00.250Z,110.80
2019-01-09T15:30:31.015Z,111.33
2019-01-09T15:33:00.661Z,138.60
2019-01-09T15:35:29.986Z,130.43
2019-01-09T15:37:59.454Z,104.70
2019-01-09T15:40:30.584Z,93.37
2019-01-09T15:43:00.790Z,104.60
2019-01-09T15:45:30.101Z,89.67
2019-01-09T15:47:59.660Z,90.70
2019-01-09T15:50:29.120Z,95.23
2019-01-09T15:52:59.461Z,89.53
2019-01-09T15:55:28.916Z,93.43
2019-01-09T15:57:58.666Z,90.90
2019-01-09T16:00:34.463Z,82.87
2019-01-09T16:03:05.590Z,87.10
2019-01-09T16:05:35.170Z,91.23
2019-01-09T16:08:05.792Z,81.23
2019-01-09T16:10:43.562Z,86.83
2019-01-09T16:13:16.424Z,80.13
2019-01-09T16:15:47.000Z,82.33
2019-01-09T16:18:16.569Z,83.43
2019-01-09T16:20:48.163Z,84.87
2019-01-09T16:23:19.591Z,83.67
2019-01-09T16:25:48.750Z,86.50
2019-01-09T16:28:18.251Z,81.27
2019-01-09T16:30:59.476Z,82.70
2019-01-09T16:33:30.021Z,77.90
2019-01-09T16:35:59.335Z,81.53
2019-01-09T16:38:41.334Z,83.53
2019-01-09T16:41:10.572Z,86.23
2019-01-09T16:43:39.923Z,105.33
2019-01-09T16:46:09.477Z,88.57
2019-01-09T16:48:39.752Z,85.90
2019-01-09T16:51:09.585Z,89.27
2019-01-09T16:53:39.074Z,93.73
2019-01-09T16:56:08.637Z,92.30
2019-01-09T16:58:38.209Z,88.63
2019-01-09T17:01:08.155Z,84.97
2019-01-09T17:03:37.473Z,87.40
2019-01-09T17:06:07.143Z,90.70
2019-01-09T17:08:38.247Z,92.30
2019-01-09T17:11:07.561Z,93.67
2019-01-09T17:13:38.007Z,94.60
2019-01-09T17:16:07.429Z,89.60
2019-01-09T17:18:36.997Z,96.93
2019-01-09T17:21:07.373Z,87.77
2019-01-09T17:23:36.912Z,94.03
2019-01-09T17:26:07.266Z,98.23
2019-01-09T17:28:38.787Z,91.67
2019-01-09T17:31:08.311Z,95.07
2019-01-09T17:33:37.730Z,104.73
2019-01-09T17:36:08.433Z,102.67
2019-01-09T17:38:40.847Z,103.27
2019-01-09T17:41:11.217Z,98.13
2019-01-09T17:43:40.653Z,100.80
2019-01-09T17:46:10.609Z,102.63
2019-01-09T17:48:46.684Z,104.53
2019-01-09T17:51:18.683Z,117.43
2019-01-09T17:53:48.070Z,106.97
2019-01-09T17:56:17.623Z,109.20
2019-01-09T17:58:47.173Z,114.40
2019-01-09T18:01:16.590Z,110.47
2019-01-09T18:03:46.179Z,110.93
2019-01-09T18:06:16.458Z,104.37
2019-01-09T18:08:46.017Z,103.70
2019-01-09T18:11:15.503Z,107.83
2019-01-09T18:13:45.538Z,110.63
2019-01-09T18:16:14.952Z,115.97
2019-01-09T18:18:44.762Z,117.03
2019-01-09T18:21:13.968Z,113.27
2019-01-09T18:23:43.414Z,117.57
2019-01-09T18:26:12.955Z,112.30
2019-01-09T18:28:42.418Z,114.87
2019-01-09T18:31:22.733Z,104.83
2019-01-09T18:33:55.191Z,104.47
2019-01-09T18:36:27.514Z,111.37
2019-01-09T18:39:04.125Z,111.93
2019-01-09T18:41:44.543Z,108.23
2019-01-09T18:44:31.555Z,110.43
2019-01-09T18:47:12.998Z,107.27
2019-01-09T18:49:54.441Z,114.30
2019-01-09T18:52:32.525Z,104.27
2019-01-09T18:55:01.874Z,104.70
2019-01-09T18:57:32.240Z,116.73
2019-01-09T19:00:01.707Z,107.67
2019-01-09T19:02:31.264Z,100.33
2019-01-09T19:05:00.682Z,105.53
2019-01-09T19:07:30.255Z,110.47
2019-01-09T19:09:59.777Z,114.23
2019-01-09T19:12:31.217Z,124.73
2019-01-09T19:15:01.151Z,117.63
2019-01-09T19:17:30.784Z,109.10
2019-01-09T19:20:00.284Z,108.73
2019-01-09T19:22:29.752Z,119.40
2019-01-09T19:25:00.015Z,110.03
2019-01-09T19:27:29.558Z,117.70
2019-01-09T19:29:58.987Z,121.57
2019-01-09T19:32:28.620Z,120.73
2019-01-09T19:34:58.001Z,116.53
2019-01-09T19:37:27.577Z,116.23
2019-01-09T19:39:57.123Z,120.57
2019-01-09T19:42:26.505Z,115.27
2019-01-09T19:44:56.059Z,118.33
2019-01-09T19:47:25.564Z,116.23
2019-01-09T19:49:55.102Z,119.43
2019-01-09T19:52:24.633Z,129.57
2019-01-09T19:54:54.149Z,121.80
2019-01-09T19:57:23.700Z,109.87
2019-01-09T19:59:53.946Z,115.23
2019-01-09T20:02:23.530Z,117.37
2019-01-09T20:04:52.972Z,115.27
2019-01-09T20:07:22.599Z,124.57
2019-01-09T20:09:52.002Z,124.33
2019-01-09T20:12:22.320Z,118.13
2019-01-09T20:14:51.915Z,112.20
2019-01-09T20:17:21.374Z,116.53
2019-01-09T20:19:50.946Z,108.47
2019-01-09T20:22:20.439Z,109.37
2019-01-09T20:24:49.840Z,108.93
2019-01-09T20:27:19.454Z,110.70
2019-01-09T20:29:48.906Z,108.03
2019-01-09T20:32:18.438Z,111.83
2019-01-09T20:34:47.962Z,111.37
2019-01-09T20:37:18.678Z,114.03
2019-01-09T20:39:48.245Z,114.73
2019-01-09T20:42:18.312Z,116.40
2019-01-09T20:44:47.599Z,108.60
2019-01-09T20:47:18.755Z,115.80
2019-01-09T20:49:48.089Z,111.50
2019-01-09T20:52:17.649Z,116.07
2019-01-09T20:54:47.217Z,118.63
2019-01-09T20:57:16.915Z,114.67
2019-01-09T20:59:46.347Z,108.40
2019-01-09T21:02:15.703Z,117.30
2019-01-09T21:04:45.186Z,104.10
2019-01-09T21:07:14.619Z,107.80
2019-01-09T21:09:44.076Z,101.77
2019-01-09T21:12:13.702Z,103.83
2019-01-09T21:14:43.207Z,95.20
2019-01-09T21:17:13.625Z,112.57
2019-01-09T21:19:42.967Z,115.90
2019-01-09T21:22:15.023Z,106.40
2019-01-09T21:24:44.891Z,117.90
2019-01-09T21:27:14.484Z,114.57
2019-01-09T21:29:44.738Z,111.27
2019-01-09T21:32:14.278Z,107.37
2019-01-09T21:34:43.749Z,117.00
2019-01-09T21:37:13.320Z,104.23
2019-01-09T21:39:42.735Z,110.07
2019-01-09T21:42:12.275Z,105.70
2019-01-09T21:44:41.779Z,103.53
2019-01-09T21:47:11.326Z,110.40
2019-01-09T21:49:40.718Z,105.70
2019-01-09T21:52:11.174Z,105.57
2019-01-09T21:54:48.433Z,109.00
2019-01-09T21:57:18.637Z,99.13
2019-01-09T21:59:47.792Z,99.23
2019-01-09T22:02:17.427Z,96.47
2019-01-09T22:04:50.035Z,100.43
2019-01-09T22:07:19.279Z,104.77
2019-01-09T22:09:49.591Z,94.70
2019-01-09T22:12:20.043Z,97.57
2019-01-09T22:14:49.293Z,99.67
2019-01-09T22:17:18.497Z,97.03
2019-01-09T22:19:47.887Z,98.17
2019-01-09T22:22:17.483Z,95.00
2019-01-09T22:24:47.099Z,93.90
2019-01-09T22:27:16.417Z,89.50
2019-01-09T22:29:46.046Z,89.60
2019-01-09T22:32:15.574Z,93.40
2019-01-09T22:34:45.309Z,92.93
2019-01-09T22:37:14.829Z,89.60
2019-01-09T22:39:44.114Z,92.93
2019-01-09T22:42:13.563Z,92.23
2019-01-09T22:44:43.008Z,95.17
2019-01-09T22:47:12.553Z,94.33
2019-01-09T22:49:42.761Z,100.37
2019-01-09T22:52:13.102Z,93.87
2019-01-09T22:54:42.709Z,97.53
2019-01-09T22:57:12.183Z,107.20
2019-01-09T22:59:41.610Z,106.80
2019-01-09T23:02:11.466Z,106.67
2019-01-09T23:04:40.642Z,111.17
2019-01-09T23:07:10.306Z,111.83
2019-01-09T23:09:39.663Z,115.50
2019-01-09T23:12:09.204Z,104.33
2019-01-09T23:14:38.702Z,112.60
2019-01-09T23:17:08.311Z,107.30
2019-01-09T23:19:37.709Z,100.17
2019-01-09T23:22:07.230Z,101.50
2019-01-09T23:24:36.786Z,101.57
2019-01-09T23:27:06.668Z,108.50
2019-01-09T23:29:36.081Z,106.07
2019-01-09T23:32:05.424Z,101.20
2019-01-09T23:34:34.759Z,114.90
2019-01-09T23:37:04.341Z,134.40
2019-01-09T23:39:33.791Z,114.03
2019-01-09T23:42:03.058Z,116.00
2019-01-09T23:44:32.311Z,114.10
2019-01-09T23:47:01.511Z,129.80
2019-01-09T23:49:30.960Z,100.70
2019-01-09T23:52:00.411Z,111.67
2019-01-09T23:54:30.012Z,117.47
2019-01-09T23:56:59.473Z,111.50
2019-01-09T23:59:28.931Z,111.90
